Air Resources Laboratory banner image
Air Resources Laboratory web site National Oceanic and Atmospheric Administration (NOAA)

wv metar


KBKW 160851Z AUTO 29008KT 10SM OVC038 M03/M08 A3008 RMK AO2 SLP223 T10331078
 53004 TSNO=
KBLF 160852Z AUTO 29011KT 10SM CLR M04/M09 A3007 RMK AO2 SLP211 T10441089 53004=
KCKB 160853Z AUTO 22008KT 10SM BKN033 OVC048 M01/M07 A3010 RMK AO2 SLP198
 T10061072 51005=
KCRW 160854Z 22006KT 10SM OVC055 01/M07 A3014 RMK AO2 SLP214 T00061067 50002=
KEKN 160851Z AUTO 25008KT 9SM FEW023 OVC038 M03/M08 A3007 RMK AO2 SNB29E43
 SLP210 P0000 60000 T10281078 51010 TSNO=
KHLG 160853Z AUTO 22010G17KT 10SM BKN047 OVC065 M02/M08 A3003 RMK AO2 SLP186
 T10221083 51007=
KHTS 160851Z 21008KT 10SM BKN060 00/M07 A3015 RMK AO2 SLP215 T00001067 53002=
KMGW 160853Z AUTO 21006KT 10SM SCT049 M02/M09 A3006 RMK AO2 SLP193 T10171089
 53001=
KMRB 160853Z AUTO 26009G18KT 10SM CLR 00/M09 A3003 RMK AO2 SLP176 T00001094
 50010=
KPKB 160853Z AUTO 20007KT 10SM OVC060 M01/M06 A3013 RMK AO2 SLP209 T10061061
 56001=